Time;durP1;ratioP1;P1;durP2;ratioP2;P2;SDS_P1;SDS_P2;PMS_P1;PMS_P2;Temp;Humidity;BMP_temperature;BMP_pressure;BME280_temperature;BME280_humidity;BME280_pressure;Samples;Min_cycle;Max_cycle;Signal;HPM_P1;HPM_P2
2023/06/11 00:01:58;;;;;;;9.75;8.98;;;24.10;55.80;;;;;;5039919;28;20211;-91
2023/06/11 00:04:25;;;;;;;9.15;8.65;;;24.00;55.90;;;;;;5041162;28;20212;-90
2023/06/11 00:06:56;;;;;;;9.35;8.75;;;24.00;56.00;;;;;;5038812;28;20177;-90
2023/06/11 00:09:25;;;;;;;9.52;9.00;;;24.10;56.10;;;;;;5040575;28;20196;-90
2023/06/11 00:11:53;;;;;;;8.90;8.40;;;24.00;56.00;;;;;;5037630;28;20255;-90
2023/06/11 00:14:20;;;;;;;8.90;8.40;;;24.00;56.70;;;;;;5038246;28;20185;-90
2023/06/11 00:16:46;;;;;;;8.68;8.13;;;24.10;55.50;;;;;;5038136;28;20208;-90
2023/06/11 00:19:12;;;;;;;9.23;8.63;;;24.00;55.90;;;;;;5038898;28;20188;-91
2023/06/11 00:21:43;;;;;;;9.05;8.55;;;24.00;56.50;;;;;;5045580;28;20181;-91
2023/06/11 00:24:12;;;;;;;8.98;8.40;;;23.80;57.00;;;;;;5038193;28;20630;-92
2023/06/11 00:26:38;;;;;;;9.40;8.80;;;23.70;56.80;;;;;;5037496;28;20161;-92
2023/06/11 00:29:04;;;;;;;9.75;9.00;;;23.60;56.30;;;;;;5037061;28;20679;-90
2023/06/11 00:31:30;;;;;;;9.00;8.40;;;23.70;56.90;;;;;;5037768;28;20256;-89
2023/06/11 00:33:55;;;;;;;9.45;8.85;;;23.60;56.80;;;;;;5036454;28;20200;-91
2023/06/11 00:36:21;;;;;;;9.48;8.82;;;23.60;57.10;;;;;;5038108;28;20181;-90
2023/06/11 00:38:48;;;;;;;10.10;9.07;;;23.60;57.20;;;;;;5037743;28;20639;-90
2023/06/11 00:41:14;;;;;;;9.55;8.85;;;23.60;57.30;;;;;;5036418;28;20176;-90
2023/06/11 00:43:40;;;;;;;9.45;8.95;;;23.60;57.70;;;;;;5037051;28;20173;-89
2023/06/11 00:46:10;;;;;;;9.80;9.10;;;23.60;58.00;;;;;;5036644;28;20397;-90
2023/06/11 00:48:37;;;;;;;8.73;8.13;;;23.50;58.30;;;;;;5036404;28;20216;-90
2023/06/11 00:51:03;;;;;;;9.35;8.85;;;23.50;58.20;;;;;;5036105;28;20467;-90
2023/06/11 00:53:29;;;;;;;9.15;8.55;;;23.30;58.60;;;;;;5036112;28;20709;-92
2023/06/11 00:55:55;;;;;;;9.05;8.55;;;23.20;59.30;;;;;;5037037;28;20192;-92
2023/06/11 00:58:22;;;;;;;9.07;8.48;;;23.10;59.50;;;;;;5055888;28;20202;-90
2023/06/11 01:00:52;;;;;;;9.13;8.60;;;23.10;59.60;;;;;;5041798;28;20180;-89
2023/06/11 01:03:22;;;;;;;8.77;8.13;;;22.90;60.00;;;;;;5037006;28;20260;-90
2023/06/11 01:05:54;;;;;;;9.02;8.52;;;23.00;59.50;;;;;;5020108;28;20185;-90
2023/06/11 01:08:20;;;;;;;8.95;8.27;;;23.00;59.60;;;;;;5029473;28;20205;-90
2023/06/11 01:10:47;;;;;;;8.93;8.32;;;22.90;59.60;;;;;;5034635;28;20291;-90
2023/06/11 01:13:13;;;;;;;8.82;8.32;;;22.90;59.60;;;;;;5038319;28;20166;-88
2023/06/11 01:15:38;;;;;;;9.60;9.00;;;22.80;59.50;;;;;;5038250;28;20267;-90
2023/06/11 01:18:05;;;;;;;8.93;8.32;;;22.90;59.70;;;;;;5047191;28;20220;-91
2023/06/11 01:20:39;;;;;;;9.00;8.30;;;22.80;59.50;;;;;;5042030;28;20239;-92
2023/06/11 01:23:10;;;;;;;9.55;8.85;;;22.90;59.80;;;;;;5041504;28;20174;-92
2023/06/11 01:25:44;;;;;;;8.77;8.18;;;22.80;60.30;;;;;;5041299;28;20590;-90
2023/06/11 01:28:12;;;;;;;9.18;8.48;;;22.70;61.10;;;;;;5040350;28;20818;-90
2023/06/11 01:30:41;;;;;;;8.38;7.85;;;22.70;61.20;;;;;;5040264;28;20208;-91
2023/06/11 01:33:08;;;;;;;8.70;8.20;;;22.80;60.90;;;;;;5039407;28;20177;-89
2023/06/11 01:35:34;;;;;;;8.57;7.97;;;22.90;60.60;;;;;;5041340;28;20177;-93
2023/06/11 01:38:02;;;;;;;8.93;8.32;;;22.90;60.50;;;;;;5040636;28;20273;-92
2023/06/11 01:40:28;;;;;;;8.82;8.32;;;22.90;60.10;;;;;;5041458;28;20196;-91
2023/06/11 01:42:55;;;;;;;8.52;7.93;;;23.00;60.10;;;;;;5041794;28;20184;-89
2023/06/11 01:45:22;;;;;;;8.82;8.23;;;22.90;60.60;;;;;;5040491;28;20675;-90
2023/06/11 01:47:52;;;;;;;9.15;8.50;;;22.90;60.70;;;;;;5041928;28;20213;-91
2023/06/11 01:50:18;;;;;;;8.95;8.45;;;22.80;61.10;;;;;;5041438;28;20205;-89
2023/06/11 01:52:45;;;;;;;8.75;8.15;;;22.70;61.50;;;;;;5041070;28;20184;-88
2023/06/11 01:55:11;;;;;;;8.88;8.38;;;22.60;62.30;;;;;;5040864;28;20177;-93
2023/06/11 01:57:37;;;;;;;8.77;8.27;;;22.60;62.20;;;;;;5040956;28;20224;-91
2023/06/11 02:00:11;;;;;;;8.55;8.05;;;22.60;62.60;;;;;;5041642;28;20185;-92
2023/06/11 02:02:42;;;;;;;8.95;8.32;;;22.60;62.50;;;;;;5041661;28;20172;-90
2023/06/11 02:05:08;;;;;;;9.15;8.63;;;22.70;62.00;;;;;;5042086;28;20679;-89
2023/06/11 02:07:35;;;;;;;9.00;8.40;;;22.60;62.00;;;;;;5041067;28;20203;-90
2023/06/11 02:10:01;;;;;;;9.48;8.77;;;22.60;62.10;;;;;;5042112;28;20197;-89
2023/06/11 02:12:26;;;;;;;9.27;8.68;;;22.60;62.40;;;;;;5045055;28;20184;-90
2023/06/11 02:14:52;;;;;;;9.20;8.60;;;22.50;63.00;;;;;;5045255;28;20259;-91
2023/06/11 02:17:17;;;;;;;9.45;8.65;;;22.20;63.90;;;;;;5041413;28;20850;-91
2023/06/11 02:19:46;;;;;;;9.35;8.75;;;22.10;64.40;;;;;;5041213;28;20268;-91
2023/06/11 02:22:12;;;;;;;9.63;8.93;;;22.00;64.70;;;;;;5039617;28;20239;-91
2023/06/11 02:24:38;;;;;;;9.75;9.02;;;22.00;64.90;;;;;;5040768;28;20582;-89
2023/06/11 02:27:03;;;;;;;9.30;8.60;;;22.00;64.80;;;;;;5039956;28;20195;-89
2023/06/11 02:29:29;;;;;;;9.05;8.48;;;22.00;65.00;;;;;;5040212;28;20244;-89
2023/06/11 02:31:55;;;;;;;9.75;9.07;;;22.00;64.70;;;;;;5039159;28;20177;-93
2023/06/11 02:34:20;;;;;;;9.48;8.88;;;22.00;64.90;;;;;;5037745;28;20169;-92
2023/06/11 02:36:46;;;;;;;9.88;9.05;;;21.90;65.00;;;;;;5039819;28;20207;-89
2023/06/11 02:39:11;;;;;;;9.40;8.80;;;21.90;65.00;;;;;;5041426;28;20188;-89
2023/06/11 02:41:37;;;;;;;9.77;9.05;;;21.90;65.30;;;;;;5040069;28;20267;-90
2023/06/11 02:44:03;;;;;;;9.77;9.10;;;21.90;65.40;;;;;;5039512;28;20268;-92
2023/06/11 02:46:28;;;;;;;9.05;8.45;;;21.80;65.90;;;;;;5021237;28;20188;-90
2023/06/11 02:48:54;;;;;;;10.00;9.30;;;21.90;65.70;;;;;;5039663;28;20917;-90
2023/06/11 02:51:19;;;;;;;9.07;8.48;;;22.00;65.40;;;;;;5038430;28;20183;-91
2023/06/11 02:53:45;;;;;;;9.52;8.93;;;21.90;65.60;;;;;;5039377;28;20204;-91
2023/06/11 02:56:11;;;;;;;9.50;8.90;;;21.80;65.90;;;;;;5041974;28;20189;-90
2023/06/11 02:58:36;;;;;;;9.80;9.20;;;21.80;66.50;;;;;;5061009;28;20199;-90
2023/06/11 03:01:03;;;;;;;10.18;9.40;;;21.70;66.70;;;;;;5060132;28;20189;-92
2023/06/11 03:03:28;;;;;;;9.25;8.63;;;21.70;66.90;;;;;;5060866;28;20206;-89
2023/06/11 03:05:54;;;;;;;10.18;9.35;;;21.60;67.10;;;;;;5061330;28;20317;-91
2023/06/11 03:08:19;;;;;;;9.60;8.90;;;21.60;67.10;;;;;;5054042;28;20291;-92
2023/06/11 03:10:45;;;;;;;9.65;8.95;;;21.60;67.80;;;;;;5047948;28;20199;-90
2023/06/11 03:13:11;;;;;;;10.65;9.95;;;21.50;67.80;;;;;;5042130;28;20180;-89
2023/06/11 03:15:36;;;;;;;10.20;9.40;;;21.50;68.10;;;;;;5042271;28;20653;-89
2023/06/11 03:18:03;;;;;;;9.30;8.60;;;21.50;68.00;;;;;;5040428;28;20201;-90
2023/06/11 03:20:28;;;;;;;9.63;8.95;;;21.50;67.50;;;;;;5039597;28;20574;-89
2023/06/11 03:22:54;;;;;;;9.32;8.63;;;21.60;67.10;;;;;;5039457;28;20209;-89
2023/06/11 03:25:20;;;;;;;10.18;9.48;;;21.60;66.70;;;;;;5021867;28;20215;-90
2023/06/11 03:27:46;;;;;;;9.68;8.98;;;21.60;66.40;;;;;;5037663;28;20287;-91
2023/06/11 03:30:12;;;;;;;9.07;8.38;;;21.60;66.70;;;;;;5037339;28;20227;-90
2023/06/11 03:32:40;;;;;;;9.90;9.20;;;21.50;67.40;;;;;;5037867;28;20203;-91
2023/06/11 03:35:06;;;;;;;9.18;8.63;;;21.40;67.70;;;;;;5037069;28;20295;-89
2023/06/11 03:37:32;;;;;;;9.52;8.90;;;21.40;67.60;;;;;;5038815;28;20218;-91
2023/06/11 03:39:57;;;;;;;9.75;9.05;;;21.40;67.50;;;;;;5037774;28;20185;-91
2023/06/11 03:42:23;;;;;;;10.23;9.52;;;21.40;67.00;;;;;;5037026;28;20279;-92
2023/06/11 03:44:49;;;;;;;9.77;9.15;;;21.40;67.70;;;;;;5036122;28;20175;-92
2023/06/11 03:47:15;;;;;;;9.65;9.00;;;21.20;68.20;;;;;;5036860;28;20325;-91
2023/06/11 03:49:41;;;;;;;9.25;8.65;;;21.10;68.70;;;;;;5037944;28;21059;-89
2023/06/11 03:52:07;;;;;;;9.40;8.80;;;21.00;68.80;;;;;;5037591;28;20169;-90
2023/06/11 03:54:32;;;;;;;10.32;9.60;;;21.00;69.40;;;;;;5037247;28;20166;-91
2023/06/11 03:56:58;;;;;;;10.15;9.35;;;20.90;70.00;;;;;;5038075;28;20177;-91
2023/06/11 03:59:24;;;;;;;9.43;8.77;;;20.80;70.60;;;;;;5038066;28;20169;-89
2023/06/11 04:01:49;;;;;;;10.13;9.45;;;20.80;70.50;;;;;;5018839;28;20194;-88
2023/06/11 04:04:15;;;;;;;9.48;8.88;;;20.80;70.80;;;;;;5040650;28;20194;-91
2023/06/11 04:06:42;;;;;;;9.90;9.00;;;20.80;70.80;;;;;;5043900;28;20175;-92
2023/06/11 04:09:08;;;;;;;9.25;8.43;;;20.80;70.40;;;;;;5038383;28;20257;-89
2023/06/11 04:11:34;;;;;;;9.38;8.68;;;20.80;70.60;;;;;;5036955;28;20647;-90
2023/06/11 04:13:59;;;;;;;9.18;8.55;;;20.80;70.90;;;;;;5038415;28;20182;-89
2023/06/11 04:16:25;;;;;;;10.02;9.32;;;20.80;70.90;;;;;;5037819;28;20254;-90
2023/06/11 04:18:52;;;;;;;9.43;8.82;;;20.80;71.00;;;;;;5037001;28;20197;-89
2023/06/11 04:21:18;;;;;;;9.20;8.60;;;20.80;70.90;;;;;;5037454;28;20215;-89
2023/06/11 04:23:44;;;;;;;9.48;8.82;;;20.90;71.00;;;;;;5038674;28;20220;-91
2023/06/11 04:26:10;;;;;;;9.15;8.55;;;20.90;70.80;;;;;;5038332;28;20185;-87
2023/06/11 04:28:40;;;;;;;9.40;8.73;;;21.00;70.20;;;;;;5019899;28;20250;-90
2023/06/11 04:31:06;;;;;;;8.85;8.27;;;21.10;70.10;;;;;;5037129;28;20219;-91
2023/06/11 04:33:33;;;;;;;9.23;8.68;;;21.10;69.20;;;;;;5036002;28;20252;-90
2023/06/11 04:36:09;;;;;;;9.15;8.50;;;21.10;69.80;;;;;;5035638;28;20190;-90
2023/06/11 04:38:37;;;;;;;9.52;8.90;;;21.10;68.80;;;;;;5035621;28;20255;-92
2023/06/11 04:41:06;;;;;;;9.00;8.40;;;21.10;68.70;;;;;;5035404;28;20261;-89
2023/06/11 04:43:34;;;;;;;9.00;8.40;;;21.10;69.40;;;;;;5036779;28;20245;-90
2023/06/11 04:46:03;;;;;;;9.20;8.50;;;21.20;68.60;;;;;;5036061;28;20183;-90
2023/06/11 04:48:31;;;;;;;9.40;8.80;;;21.20;68.90;;;;;;5036675;28;20586;-89
2023/06/11 04:50:59;;;;;;;8.77;8.18;;;21.20;68.80;;;;;;5035588;28;20204;-90
2023/06/11 04:53:27;;;;;;;9.13;8.38;;;21.30;68.20;;;;;;5035947;28;20183;-90
2023/06/11 04:55:55;;;;;;;9.57;8.77;;;21.40;68.60;;;;;;5034800;28;20173;-90
2023/06/11 04:58:24;;;;;;;9.10;8.50;;;21.40;68.10;;;;;;5054309;28;20489;-91
2023/06/11 05:00:51;;;;;;;9.40;8.70;;;21.40;67.60;;;;;;5048476;28;20199;-89
2023/06/11 05:03:18;;;;;;;8.95;8.45;;;21.50;67.60;;;;;;5047997;28;20211;-90
2023/06/11 05:05:51;;;;;;;9.00;8.40;;;21.50;67.20;;;;;;5038810;28;20187;-90
2023/06/11 05:08:24;;;;;;;9.10;8.50;;;21.60;66.90;;;;;;5029417;28;20193;-90
2023/06/11 05:10:50;;;;;;;9.32;8.70;;;21.70;66.80;;;;;;5036717;28;20216;-89
2023/06/11 05:13:22;;;;;;;9.60;9.00;;;21.80;66.30;;;;;;5020779;28;20267;-90
2023/06/11 05:15:48;;;;;;;9.93;9.23;;;21.80;66.30;;;;;;5038038;28;20642;-89
2023/06/11 05:18:14;;;;;;;9.38;8.77;;;21.70;66.30;;;;;;5019794;28;20210;-90
2023/06/11 05:20:40;;;;;;;8.95;8.27;;;21.60;66.50;;;;;;5037835;28;20218;-89
2023/06/11 05:23:06;;;;;;;9.48;8.82;;;21.70;66.80;;;;;;5039774;28;20189;-89
2023/06/11 05:25:32;;;;;;;8.90;8.20;;;21.70;66.90;;;;;;5039589;28;20179;-90
2023/06/11 05:28:00;;;;;;;9.07;8.43;;;21.60;67.00;;;;;;5044546;28;20233;-91
2023/06/11 05:30:33;;;;;;;8.75;8.15;;;21.70;66.10;;;;;;5038039;28;20205;-90
2023/06/11 05:32:58;;;;;;;9.60;8.73;;;21.60;66.10;;;;;;5034684;28;20161;-89
2023/06/11 05:35:25;;;;;;;9.20;8.60;;;21.70;66.90;;;;;;5035725;28;20179;-90
2023/06/11 05:37:51;;;;;;;9.57;8.80;;;21.70;65.80;;;;;;5035619;28;20215;-87
2023/06/11 05:40:17;;;;;;;9.05;8.45;;;21.80;65.80;;;;;;5036970;28;20278;-90
2023/06/11 05:42:43;;;;;;;9.43;8.73;;;21.90;65.80;;;;;;5036472;28;20208;-89
2023/06/11 05:45:08;;;;;;;9.07;8.48;;;21.90;65.00;;;;;;5036999;28;20313;-91
2023/06/11 05:47:34;;;;;;;8.90;8.40;;;22.00;64.90;;;;;;5018182;28;20219;-91
2023/06/11 05:50:00;;;;;;;8.93;8.35;;;22.10;65.00;;;;;;5042214;28;20227;-91
2023/06/11 05:52:26;;;;;;;9.25;8.50;;;22.10;64.70;;;;;;5034872;28;20188;-93
2023/06/11 05:54:52;;;;;;;9.05;8.35;;;22.30;64.30;;;;;;5018906;28;20180;-87
2023/06/11 05:57:22;;;;;;;8.98;8.35;;;22.30;64.50;;;;;;5038774;28;20197;-90
2023/06/11 05:59:47;;;;;;;9.10;8.52;;;22.30;64.60;;;;;;5044329;28;20199;-89
2023/06/11 06:02:13;;;;;;;9.80;9.00;;;22.40;64.00;;;;;;5056978;28;20180;-91
2023/06/11 06:04:39;;;;;;;9.43;8.82;;;22.50;63.40;;;;;;5057894;28;20180;-91
2023/06/11 06:07:05;;;;;;;9.50;8.90;;;22.50;63.30;;;;;;5056906;28;20173;-90
2023/06/11 06:09:32;;;;;;;8.98;8.38;;;22.50;62.70;;;;;;5042293;28;20205;-91
2023/06/11 06:11:57;;;;;;;10.02;9.32;;;22.50;63.40;;;;;;5040334;28;20169;-90
2023/06/11 06:14:23;;;;;;;8.98;8.38;;;22.60;62.90;;;;;;5040250;28;20212;-90
2023/06/11 06:16:48;;;;;;;10.27;9.35;;;22.80;62.70;;;;;;5040597;28;20245;-90
2023/06/11 06:19:14;;;;;;;9.30;8.50;;;22.80;62.40;;;;;;5040333;28;20236;-93
2023/06/11 06:21:39;;;;;;;9.70;8.90;;;22.80;62.30;;;;;;5044070;28;20193;-93
2023/06/11 06:24:05;;;;;;;10.00;9.30;;;23.00;61.60;;;;;;5041135;28;20185;-92
2023/06/11 06:26:31;;;;;;;9.52;8.93;;;23.00;61.30;;;;;;5040933;28;20185;-89
2023/06/11 06:28:57;;;;;;;8.63;8.10;;;23.00;61.50;;;;;;5040540;28;20212;-90
2023/06/11 06:31:24;;;;;;;9.90;9.27;;;23.10;61.10;;;;;;5053317;28;20203;-93
2023/06/11 06:33:50;;;;;;;10.07;9.27;;;23.20;61.10;;;;;;5057040;28;20192;-94
2023/06/11 06:36:19;;;;;;;9.85;9.05;;;23.30;61.10;;;;;;5057657;28;20161;-93
2023/06/11 06:38:45;;;;;;;10.32;9.43;;;23.30;60.70;;;;;;5056532;28;20327;-93
2023/06/11 06:41:11;;;;;;;9.70;9.00;;;23.40;60.20;;;;;;5057959;28;20208;-94
2023/06/11 06:43:37;;;;;;;9.00;8.40;;;23.40;60.10;;;;;;5064781;28;20181;-91
2023/06/11 06:46:03;;;;;;;10.52;9.63;;;23.60;59.60;;;;;;5053996;28;20176;-91
2023/06/11 06:48:29;;;;;;;10.18;9.48;;;23.70;59.30;;;;;;5053111;28;20223;-92
2023/06/11 06:50:59;;;;;;;8.95;8.38;;;23.70;59.30;;;;;;5045284;28;20199;-92
2023/06/11 06:53:25;;;;;;;9.52;8.93;;;23.70;59.10;;;;;;5048315;28;20189;-88
2023/06/11 06:55:50;;;;;;;9.98;9.18;;;23.80;59.50;;;;;;5050943;28;20169;-93
2023/06/11 06:58:16;;;;;;;9.95;9.25;;;24.00;58.30;;;;;;5041756;28;20280;-91
2023/06/11 07:00:42;;;;;;;10.80;9.88;;;24.00;58.10;;;;;;5032997;28;20184;-91
2023/06/11 07:03:09;;;;;;;9.50;8.80;;;23.90;58.50;;;;;;5042436;28;20202;-87
2023/06/11 07:05:34;;;;;;;10.57;9.77;;;23.90;59.10;;;;;;5050168;28;20726;-90
2023/06/11 07:08:00;;;;;;;9.77;9.18;;;24.10;58.10;;;;;;5047651;28;20232;-89
2023/06/11 07:10:26;;;;;;;9.73;9.13;;;24.20;57.70;;;;;;5056848;28;20212;-91
2023/06/11 07:12:51;;;;;;;10.15;9.45;;;24.30;57.80;;;;;;5060123;28;20275;-90
2023/06/11 07:15:17;;;;;;;10.98;9.93;;;24.40;57.40;;;;;;5059259;28;20184;-90
2023/06/11 07:17:42;;;;;;;10.63;9.82;;;24.40;57.10;;;;;;5057728;28;20235;-90
2023/06/11 07:20:09;;;;;;;9.93;9.23;;;24.50;56.70;;;;;;5057523;28;20550;-91
2023/06/11 07:22:34;;;;;;;9.77;9.05;;;24.50;56.70;;;;;;5059191;28;20177;-91
2023/06/11 07:25:01;;;;;;;10.88;10.18;;;24.60;56.80;;;;;;5057931;28;20185;-91
2023/06/11 07:27:27;;;;;;;10.10;9.40;;;24.70;56.00;;;;;;5055025;28;20594;-90
2023/06/11 07:29:52;;;;;;;10.13;9.43;;;24.80;55.70;;;;;;5044458;28;20258;-90
2023/06/11 07:32:23;;;;;;;9.80;9.20;;;24.80;55.70;;;;;;5043118;28;20185;-91
2023/06/11 07:34:48;;;;;;;10.15;9.55;;;24.90;55.20;;;;;;5048140;28;20285;-92
2023/06/11 07:37:14;;;;;;;10.15;9.48;;;25.00;54.50;;;;;;5030277;28;20712;-91
2023/06/11 07:39:40;;;;;;;10.43;9.73;;;25.00;54.90;;;;;;5056041;28;20203;-90
2023/06/11 07:42:06;;;;;;;10.32;9.60;;;25.10;54.70;;;;;;5056301;28;20177;-90
2023/06/11 07:44:32;;;;;;;10.93;10.13;;;25.20;54.70;;;;;;5037402;28;20185;-91
2023/06/11 07:46:58;;;;;;;11.38;10.38;;;25.30;53.60;;;;;;5036648;28;20181;-89
2023/06/11 07:49:23;;;;;;;9.82;9.25;;;25.40;52.60;;;;;;5050248;28;20246;-89
2023/06/11 07:51:49;;;;;;;12.07;11.27;;;25.50;52.30;;;;;;5047267;28;20184;-90
2023/06/11 07:54:15;;;;;;;10.40;9.73;;;25.70;52.20;;;;;;5056470;28;20165;-90
2023/06/11 07:56:40;;;;;;;10.63;10.02;;;25.80;52.80;;;;;;5058461;28;20263;-90
2023/06/11 07:59:06;;;;;;;11.32;10.63;;;25.90;52.10;;;;;;5056413;28;20222;-90
2023/06/11 08:01:32;;;;;;;10.95;10.15;;;26.00;52.50;;;;;;5027356;28;20181;-92
2023/06/11 08:03:58;;;;;;;11.73;10.93;;;26.20;51.60;;;;;;5037256;28;20533;-91
2023/06/11 08:06:23;;;;;;;10.55;9.95;;;26.20;51.40;;;;;;5036600;28;20185;-91
2023/06/11 08:08:50;;;;;;;11.43;10.63;;;26.30;51.10;;;;;;5036401;28;20216;-90
2023/06/11 08:11:16;;;;;;;10.93;10.23;;;26.50;50.40;;;;;;5035081;28;20203;-90
2023/06/11 08:13:41;;;;;;;11.52;10.65;;;26.50;50.50;;;;;;5035840;28;20200;-91
2023/06/11 08:16:08;;;;;;;11.82;10.95;;;26.60;50.40;;;;;;5036912;28;20177;-89
2023/06/11 08:18:33;;;;;;;11.50;10.90;;;26.60;50.50;;;;;;5035139;28;20200;-90
2023/06/11 08:21:00;;;;;;;11.45;10.75;;;26.60;49.10;;;;;;5035629;28;20199;-89
2023/06/11 08:23:26;;;;;;;12.05;11.15;;;26.60;49.50;;;;;;5036223;28;20607;-92
2023/06/11 08:25:52;;;;;;;11.50;10.80;;;26.60;49.20;;;;;;5035870;28;20209;-89
2023/06/11 08:28:19;;;;;;;12.02;11.32;;;26.80;49.30;;;;;;5034222;28;20254;-90
2023/06/11 08:30:45;;;;;;;11.48;10.77;;;26.90;48.70;;;;;;5035869;28;20216;-89
2023/06/11 08:33:11;;;;;;;11.63;10.93;;;27.00;49.20;;;;;;5017298;28;20177;-90
2023/06/11 08:35:37;;;;;;;12.25;11.50;;;27.00;48.90;;;;;;5030038;28;20244;-90
2023/06/11 08:38:03;;;;;;;11.88;11.18;;;27.20;48.30;;;;;;5015871;28;20209;-89
2023/06/11 08:40:29;;;;;;;11.77;10.98;;;27.10;48.20;;;;;;5026612;28;20214;-88
2023/06/11 08:42:55;;;;;;;11.75;10.95;;;27.10;48.40;;;;;;5036794;28;20273;-85
2023/06/11 08:45:20;;;;;;;11.20;10.50;;;27.10;48.20;;;;;;5033386;28;20220;-90
2023/06/11 08:47:51;;;;;;;11.70;10.90;;;27.20;47.60;;;;;;5035988;28;20232;-88
2023/06/11 08:50:20;;;;;;;12.05;11.13;;;27.20;46.90;;;;;;5053905;28;20722;-90
2023/06/11 08:52:50;;;;;;;12.02;11.13;;;27.30;47.20;;;;;;5055134;28;20179;-89
2023/06/11 08:55:16;;;;;;;11.77;10.98;;;27.40;46.20;;;;;;5041542;28;20173;-89
2023/06/11 08:57:43;;;;;;;11.85;11.15;;;27.40;46.40;;;;;;5036108;28;20991;-90
2023/06/11 09:00:12;;;;;;;12.07;11.27;;;27.70;45.00;;;;;;5039007;28;20579;-88
2023/06/11 09:02:38;;;;;;;11.48;10.77;;;27.80;45.20;;;;;;5036836;28;20207;-90
2023/06/11 09:05:04;;;;;;;12.20;11.43;;;27.80;44.10;;;;;;5035840;28;20180;-89
2023/06/11 09:07:30;;;;;;;12.25;11.55;;;27.80;43.50;;;;;;5035483;28;20205;-89
2023/06/11 09:10:08;;;;;;;11.93;11.13;;;27.70;43.90;;;;;;5035438;28;20669;-89
2023/06/11 09:12:34;;;;;;;12.02;11.07;;;27.70;43.60;;;;;;5034833;28;20375;-88
2023/06/11 09:14:59;;;;;;;11.90;11.20;;;27.50;44.00;;;;;;5035612;28;20651;-88
2023/06/11 09:17:33;;;;;;;11.50;10.63;;;27.50;43.30;;;;;;5035109;28;20201;-89
2023/06/11 09:20:07;;;;;;;11.40;10.70;;;27.70;42.90;;;;;;5034106;28;20173;-90
2023/06/11 09:22:35;;;;;;;12.23;11.32;;;27.90;42.30;;;;;;5033681;28;20191;-88
2023/06/11 09:25:09;;;;;;;12.88;11.98;;;28.10;42.00;;;;;;5033512;28;20370;-89
2023/06/11 09:27:36;;;;;;;11.68;11.07;;;28.00;41.90;;;;;;5034223;28;20208;-89
2023/06/11 09:30:19;;;;;;;12.13;11.43;;;28.10;42.50;;;;;;5035862;28;20196;-89
2023/06/11 09:32:47;;;;;;;13.23;12.32;;;28.40;41.10;;;;;;5037344;28;20204;-90
2023/06/11 09:35:13;;;;;;;12.65;11.95;;;28.70;39.90;;;;;;5037363;28;20173;-89
2023/06/11 09:37:44;;;;;;;13.52;12.82;;;28.80;39.70;;;;;;5036300;28;20199;-88
2023/06/11 09:40:17;;;;;;;15.23;14.43;;;29.00;39.60;;;;;;5027489;28;20172;-92
2023/06/11 09:42:44;;;;;;;17.73;16.73;;;29.10;38.40;;;;;;5026414;28;20214;-89
2023/06/11 09:45:19;;;;;;;16.02;15.23;;;28.80;37.90;;;;;;5032524;28;20180;-88
2023/06/11 09:47:46;;;;;;;16.48;15.68;;;28.90;37.30;;;;;;5017935;28;20288;-90
2023/06/11 09:50:16;;;;;;;18.08;16.95;;;29.40;36.70;;;;;;5029052;28;20216;-90
2023/06/11 09:52:43;;;;;;;19.90;18.73;;;29.60;36.30;;;;;;5029553;28;20185;-91
2023/06/11 09:55:10;;;;;;;20.45;19.45;;;29.70;35.70;;;;;;5031250;28;20228;-91
2023/06/11 09:57:37;;;;;;;20.05;19.15;;;29.70;35.20;;;;;;5025631;28;20790;-89
2023/06/11 10:00:06;;;;;;;20.25;19.35;;;29.80;35.10;;;;;;5027368;28;20208;-88
2023/06/11 10:02:31;;;;;;;20.65;19.75;;;29.80;34.60;;;;;;5025628;28;20697;-91
2023/06/11 10:04:57;;;;;;;20.00;19.00;;;29.80;34.50;;;;;;5029517;28;20189;-90
2023/06/11 10:07:24;;;;;;;19.45;18.45;;;29.80;33.90;;;;;;5022587;28;20208;-90
2023/06/11 10:09:52;;;;;;;19.83;18.88;;;29.70;34.40;;;;;;5015884;28;20228;-92
2023/06/11 10:12:21;;;;;;;19.40;18.25;;;29.90;34.20;;;;;;5021497;28;20184;-90
2023/06/11 10:14:53;;;;;;;19.63;18.67;;;30.10;33.60;;;;;;5027760;28;20189;-90
2023/06/11 10:17:22;;;;;;;19.92;19.02;;;30.50;32.00;;;;;;5032982;28;20212;-88
2023/06/11 10:19:49;;;;;;;20.38;19.40;;;30.60;31.20;;;;;;5022956;28;20319;-88
2023/06/11 10:22:21;;;;;;;20.90;19.98;;;30.70;30.80;;;;;;5027085;28;20188;-87
2023/06/11 10:24:58;;;;;;;20.90;19.90;;;30.70;30.60;;;;;;5029892;28;20201;-92
2023/06/11 10:27:37;;;;;;;21.50;20.25;;;31.00;30.80;;;;;;5028785;28;20495;-93
2023/06/11 10:30:05;;;;;;;21.13;20.08;;;31.10;30.90;;;;;;5029145;28;20201;-91
2023/06/11 10:32:30;;;;;;;20.77;19.88;;;31.20;29.00;;;;;;5028805;28;20215;-91
2023/06/11 10:34:58;;;;;;;21.15;20.25;;;31.20;29.80;;;;;;5029606;28;20178;-89
2023/06/11 10:37:33;;;;;;;21.58;20.48;;;31.50;29.70;;;;;;5031318;28;20205;-88
2023/06/11 10:39:58;;;;;;;20.52;19.63;;;31.60;29.30;;;;;;5020758;28;20661;-90
2023/06/11 10:42:39;;;;;;;20.83;19.85;;;31.60;28.70;;;;;;5028312;28;20184;-89
2023/06/11 10:45:12;;;;;;;20.05;19.10;;;31.70;28.00;;;;;;5026487;28;20207;-90
2023/06/11 10:47:51;;;;;;;19.63;18.83;;;31.70;27.50;;;;;;5030253;28;20240;-88
2023/06/11 10:50:25;;;;;;;19.90;19.10;;;31.70;28.00;;;;;;5033443;28;20226;-90
2023/06/11 10:52:58;;;;;;;20.48;19.52;;;31.80;28.00;;;;;;5015455;28;20192;-90
2023/06/11 10:55:29;;;;;;;20.08;19.13;;;31.90;27.60;;;;;;5026617;28;20169;-90
2023/06/11 10:57:55;;;;;;;19.48;18.63;;;32.00;28.00;;;;;;5024107;28;20945;-93
2023/06/11 11:02:57;;;;;;;18.88;18.08;;;32.00;26.50;;;;;;6119968;22;20253;-87
2023/06/11 11:05:23;;;;;;;19.05;18.15;;;32.10;25.70;;;;;;5030465;28;20252;-90
2023/06/11 11:07:49;;;;;;;19.67;18.77;;;32.30;26.20;;;;;;5021329;28;20310;-91
2023/06/11 11:10:18;;;;;;;20.38;19.50;;;32.10;26.40;;;;;;5021033;28;20217;-88
2023/06/11 11:12:48;;;;;;;20.38;19.48;;;32.40;25.10;;;;;;4976596;28;20767;-90
2023/06/11 11:15:14;;;;;;;21.75;20.65;;;32.50;25.50;;;;;;4910681;29;20313;-90
2023/06/11 11:17:41;;;;;;;22.52;21.52;;;32.70;25.20;;;;;;4860987;29;20291;-90
2023/06/11 11:20:12;;;;;;;22.73;21.73;;;33.00;24.80;;;;;;4757690;29;20222;-91
2023/06/11 11:22:38;;;;;;;22.52;21.60;;;33.00;25.10;;;;;;4591220;30;20574;-90
2023/06/11 11:25:06;;;;;;;24.77;23.67;;;33.00;25.30;;;;;;4475572;31;20236;-90
2023/06/11 11:29:28;;;;;;;27.23;26.23;;;33.30;24.80;;;;;;5160572;27;20537;-86
2023/06/11 11:31:55;;;;;;;28.50;27.30;;;33.70;24.40;;;;;;5133958;27;20212;-86
2023/06/11 11:34:22;;;;;;;29.50;28.23;;;33.80;24.40;;;;;;5111415;27;20731;-83
2023/06/11 11:36:47;;;;;;;31.08;29.58;;;33.90;24.20;;;;;;5088049;27;20209;-83
2023/06/11 11:39:14;;;;;;;31.50;30.20;;;34.00;24.00;;;;;;5010106;27;1272513;-85
2023/06/11 11:41:53;;;;;;;34.20;32.90;;;34.00;23.70;;;;;;4995247;28;20228;-84
2023/06/11 11:44:20;;;;;;;33.67;31.98;;;34.50;22.90;;;;;;4995022;28;20245;-87
2023/06/11 11:46:46;;;;;;;31.95;30.55;;;34.50;22.60;;;;;;5002183;28;20747;-87
2023/06/11 11:49:12;;;;;;;31.20;30.00;;;34.60;21.80;;;;;;5003656;28;20360;-86
2023/06/11 11:51:40;;;;;;;31.27;30.08;;;34.50;21.60;;;;;;5002482;28;20205;-86
2023/06/11 11:54:07;;;;;;;30.77;29.58;;;34.50;20.80;;;;;;5003619;28;20181;-86
2023/06/11 11:56:33;;;;;;;28.55;27.35;;;34.50;21.10;;;;;;5003811;28;20227;-86
2023/06/11 11:58:59;;;;;;;28.92;27.77;;;34.50;20.60;;;;;;4993259;28;20306;-86
2023/06/11 12:01:36;;;;;;;28.40;27.10;;;34.60;20.70;;;;;;5001594;28;20331;-86
2023/06/11 12:04:03;;;;;;;28.00;26.90;;;34.90;20.30;;;;;;5002067;28;20177;-85
2023/06/11 12:06:30;;;;;;;26.88;25.80;;;34.80;19.70;;;;;;5001057;28;20203;-85
2023/06/11 12:08:56;;;;;;;27.90;26.70;;;35.10;19.50;;;;;;4998007;28;20789;-86
2023/06/11 12:11:22;;;;;;;28.02;26.85;;;34.80;19.80;;;;;;4999677;28;20201;-85
2023/06/11 12:13:47;;;;;;;26.60;25.40;;;35.20;20.00;;;;;;5002447;28;20169;-85
2023/06/11 12:16:14;;;;;;;26.40;25.30;;;35.30;19.60;;;;;;5002995;28;20186;-86
2023/06/11 12:18:40;;;;;;;26.02;25.02;;;35.10;19.10;;;;;;5000403;28;20299;-85
2023/06/11 12:21:07;;;;;;;26.38;25.23;;;35.20;19.70;;;;;;5000402;28;20296;-84
2023/06/11 12:23:38;;;;;;;27.15;25.95;;;35.40;19.10;;;;;;5017064;28;20170;-86
2023/06/11 12:26:05;;;;;;;27.15;25.95;;;35.30;19.00;;;;;;4995916;28;20180;-86
2023/06/11 12:28:32;;;;;;;28.70;27.50;;;35.50;19.60;;;;;;4985156;28;20227;-86
2023/06/11 12:30:58;;;;;;;30.23;28.92;;;35.40;19.60;;;;;;4984500;28;20213;-85
2023/06/11 12:33:24;;;;;;;32.90;31.60;;;35.50;19.80;;;;;;4984942;28;20259;-85
2023/06/11 12:35:51;;;;;;;32.17;30.75;;;35.90;19.20;;;;;;5001447;28;20184;-84
2023/06/11 12:38:22;;;;;;;30.75;29.55;;;35.80;19.20;;;;;;4982435;28;20189;-88
2023/06/11 12:40:49;;;;;;;28.67;27.48;;;35.20;20.30;;;;;;4994457;28;20500;-85
2023/06/11 12:43:15;;;;;;;28.38;27.17;;;35.30;20.60;;;;;;5007356;28;20956;-87